sensor_id;sensor_type;location;lat;lon;timestamp;P1;durP1;ratioP1;P2;durP2;ratioP2
62863;SDS011;48954;59.950;11.014;2024-01-30T19:19:34;11.40;;;5.20;;
62863;SDS011;48954;59.950;11.014;2024-01-30T19:22:23;14.10;;;7.10;;
62863;SDS011;48954;59.950;11.014;2024-01-30T19:25:43;11.90;;;5.20;;
62863;SDS011;48954;59.950;11.014;2024-01-30T19:29:02;13.90;;;6.80;;
62863;SDS011;48954;59.950;11.014;2024-01-30T19:31:43;12.80;;;5.60;;
62863;SDS011;48954;59.950;11.014;2024-01-30T19:36:50;12.80;;;5.80;;
62863;SDS011;48954;59.950;11.014;2024-01-30T19:39:42;10.50;;;4.70;;
62863;SDS011;48954;59.950;11.014;2024-01-30T19:42:24;8.40;;;3.90;;
62863;SDS011;48954;59.950;11.014;2024-01-30T19:45:09;9.70;;;4.40;;
62863;SDS011;48954;59.950;11.014;2024-01-30T19:47:51;10.00;;;4.20;;
62863;SDS011;48954;59.950;11.014;2024-01-30T19:50:33;7.80;;;3.90;;
62863;SDS011;48954;59.950;11.014;2024-01-30T19:53:21;10.10;;;4.20;;
62863;SDS011;48954;59.950;11.014;2024-01-30T19:56:23;10.50;;;5.10;;
62863;SDS011;48954;59.950;11.014;2024-01-30T19:59:48;13.30;;;6.20;;
62863;SDS011;48954;59.950;11.014;2024-01-30T20:02:49;10.30;;;4.50;;
62863;SDS011;48954;59.950;11.014;2024-01-30T20:05:32;13.70;;;5.20;;
62863;SDS011;48954;59.950;11.014;2024-01-30T20:08:14;13.50;;;6.30;;
62863;SDS011;48954;59.950;11.014;2024-01-30T20:10:55;12.80;;;6.20;;
62863;SDS011;48954;59.950;11.014;2024-01-30T20:14:10;11.90;;;5.70;;
62863;SDS011;48954;59.950;11.014;2024-01-30T20:16:52;11.20;;;5.00;;
62863;SDS011;48954;59.950;11.014;2024-01-30T20:19:43;15.30;;;6.60;;
62863;SDS011;48954;59.950;11.014;2024-01-30T20:22:45;11.90;;;5.30;;
62863;SDS011;48954;59.950;11.014;2024-01-30T20:25:29;10.70;;;5.00;;
62863;SDS011;48954;59.950;11.014;2024-01-30T20:28:21;11.80;;;5.90;;
62863;SDS011;48954;59.950;11.014;2024-01-30T20:31:32;11.90;;;5.40;;
62863;SDS011;48954;59.950;11.014;2024-01-30T20:34:24;14.10;;;6.30;;
62863;SDS011;48954;59.950;11.014;2024-01-30T20:37:10;18.10;;;7.60;;
62863;SDS011;48954;59.950;11.014;2024-01-30T20:40:11;12.30;;;6.20;;
62863;SDS011;48954;59.950;11.014;2024-01-30T20:43:12;13.40;;;6.10;;
62863;SDS011;48954;59.950;11.014;2024-01-30T20:49:05;18.40;;;8.30;;
62863;SDS011;48954;59.950;11.014;2024-01-30T20:51:47;13.30;;;6.30;;
62863;SDS011;48954;59.950;11.014;2024-01-30T20:54:28;12.80;;;7.00;;
62863;SDS011;48954;59.950;11.014;2024-01-30T20:57:10;12.40;;;5.70;;
62863;SDS011;48954;59.950;11.014;2024-01-30T21:00:18;15.70;;;7.90;;
62863;SDS011;48954;59.950;11.014;2024-01-30T21:03:18;15.20;;;6.70;;
62863;SDS011;48954;59.950;11.014;2024-01-30T21:06:12;15.40;;;8.00;;
62863;SDS011;48954;59.950;11.014;2024-01-30T21:09:33;12.10;;;5.30;;
62863;SDS011;48954;59.950;11.014;2024-01-30T21:12:33;11.60;;;5.20;;
62863;SDS011;48954;59.950;11.014;2024-01-30T21:15:16;13.10;;;7.40;;
62863;SDS011;48954;59.950;11.014;2024-01-30T21:17:58;16.60;;;7.80;;
62863;SDS011;48954;59.950;11.014;2024-01-30T21:40:05;13.20;;;5.60;;
62863;SDS011;48954;59.950;11.014;2024-01-30T21:42:57;14.20;;;6.20;;
62863;SDS011;48954;59.950;11.014;2024-01-30T21:45:58;16.20;;;7.90;;
62863;SDS011;48954;59.950;11.014;2024-01-30T21:57:13;17.60;;;8.30;;
62863;SDS011;48954;59.950;11.014;2024-01-30T22:05:59;20.90;;;9.90;;
62863;SDS011;48954;59.950;11.014;2024-01-30T22:09:08;24.10;;;10.60;;
62863;SDS011;48954;59.950;11.014;2024-01-30T22:12:14;23.30;;;10.00;;
62863;SDS011;48954;59.950;11.014;2024-01-30T22:40:49;44.00;;;14.80;;
62863;SDS011;48954;59.950;11.014;2024-01-30T22:55:07;27.60;;;13.30;;
62863;SDS011;48954;59.950;11.014;2024-01-30T23:30:37;28.00;;;11.20;;
62863;SDS011;48954;59.950;11.014;2024-01-30T23:45:45;26.50;;;11.20;;
62863;SDS011;48954;59.950;11.014;2024-01-30T23:57:35;25.40;;;10.80;;
